Time;durP1;ratioP1;P1;durP2;ratioP2;P2;SDS_P1;SDS_P2;PMS_P1;PMS_P2;Temp;Humidity;BMP_temperature;BMP_pressure;BME280_temperature;BME280_humidity;BME280_pressure;Samples;Min_cycle;Max_cycle;Signal;HPM_P1;HPM_P2
2023/06/29 00:00:08;;;;;;;36.87;27.63;;;24.20;79.80;;;;;;5021241;28;20454;-79
2023/06/29 00:02:34;;;;;;;40.30;26.80;;;24.30;79.90;;;;;;5020362;28;20597;-79
2023/06/29 00:05:01;;;;;;;40.77;26.80;;;24.30;80.10;;;;;;5019015;28;20575;-79
2023/06/29 00:07:29;;;;;;;41.17;26.10;;;24.00;79.60;;;;;;5020427;28;20454;-79
2023/06/29 00:09:57;;;;;;;38.13;26.13;;;24.20;79.90;;;;;;5023545;28;20454;-79
2023/06/29 00:12:24;;;;;;;43.23;28.23;;;24.20;80.20;;;;;;5028960;28;20457;-79
2023/06/29 00:14:50;;;;;;;38.67;26.80;;;24.20;79.90;;;;;;5021172;28;20463;-79
2023/06/29 00:17:17;;;;;;;38.70;27.17;;;24.20;80.00;;;;;;5019369;28;20466;-78
2023/06/29 00:19:47;;;;;;;41.57;28.47;;;24.20;79.90;;;;;;5019477;28;20465;-78
2023/06/29 00:22:14;;;;;;;38.33;27.70;;;24.20;80.00;;;;;;5013790;28;21079;-79
2023/06/29 00:24:44;;;;;;;41.70;27.47;;;24.20;80.00;;;;;;5015487;28;20973;-78
2023/06/29 00:27:14;;;;;;;40.37;26.20;;;24.20;79.90;;;;;;5017608;28;21138;-79
2023/06/29 00:29:43;;;;;;;35.33;25.83;;;24.20;80.00;;;;;;5009023;28;20462;-79
2023/06/29 00:32:10;;;;;;;35.90;25.57;;;24.20;79.90;;;;;;5012523;28;20458;-79
2023/06/29 00:34:37;;;;;;;38.60;27.53;;;24.20;80.00;;;;;;5010887;28;20463;-80
2023/06/29 00:37:05;;;;;;;38.77;25.97;;;24.20;80.00;;;;;;5019216;28;20454;-80
2023/06/29 00:39:33;;;;;;;34.30;23.47;;;24.20;80.00;;;;;;5009622;28;22642;-79
2023/06/29 00:41:59;;;;;;;32.67;24.57;;;24.20;80.10;;;;;;5016206;28;20523;-79
2023/06/29 00:44:28;;;;;;;34.43;25.70;;;24.20;80.00;;;;;;5017321;28;20818;-79
2023/06/29 00:46:55;;;;;;;38.23;25.47;;;24.20;80.10;;;;;;5017151;28;20462;-79
2023/06/29 00:49:23;;;;;;;36.10;24.40;;;24.20;80.20;;;;;;5012105;28;22536;-79
2023/06/29 00:51:51;;;;;;;34.27;25.87;;;24.20;80.10;;;;;;5019427;28;20451;-79
2023/06/29 00:54:19;;;;;;;38.60;24.87;;;24.20;80.10;;;;;;5014246;28;20450;-79
2023/06/29 00:56:46;;;;;;;32.50;26.40;;;24.20;80.30;;;;;;5018682;28;20923;-77
2023/06/29 00:59:13;;;;;;;36.80;25.53;;;24.20;80.20;;;;;;5019455;28;20459;-77
2023/06/29 01:01:42;;;;;;;36.87;25.60;;;24.20;80.30;;;;;;5021790;28;20568;-77
2023/06/29 01:04:24;;;;;;;36.80;24.13;;;24.20;80.10;;;;;;5021084;28;21460;-79
2023/06/29 01:06:59;;;;;;;33.40;24.40;;;24.20;80.10;;;;;;5022364;28;20517;-80
2023/06/29 01:09:26;;;;;;;36.57;24.10;;;24.20;80.10;;;;;;5023607;28;20466;-79
2023/06/29 01:11:54;;;;;;;30.00;23.53;;;24.20;80.20;;;;;;5022834;28;20557;-79
2023/06/29 01:14:24;;;;;;;33.53;23.40;;;24.20;80.20;;;;;;5024712;28;20499;-79
2023/06/29 01:16:52;;;;;;;34.07;23.97;;;24.20;80.20;;;;;;5024799;28;20476;-79
2023/06/29 01:19:24;;;;;;;33.60;23.17;;;24.30;80.40;;;;;;5023988;28;20457;-79
2023/06/29 01:21:58;;;;;;;30.67;24.53;;;24.20;80.20;;;;;;5029931;28;20462;-80
2023/06/29 01:24:26;;;;;;;32.07;23.83;;;24.20;80.30;;;;;;5029237;28;20456;-79
2023/06/29 01:26:54;;;;;;;29.47;21.80;;;24.20;80.40;;;;;;5032133;28;20478;-79
2023/06/29 01:29:24;;;;;;;31.37;23.63;;;24.20;80.30;;;;;;5029885;28;20457;-79
2023/06/29 01:31:53;;;;;;;26.93;21.40;;;24.20;80.30;;;;;;5026764;28;21395;-78
2023/06/29 01:34:20;;;;;;;32.93;23.00;;;24.20;80.30;;;;;;5029165;28;20525;-79
2023/06/29 01:36:50;;;;;;;30.80;22.93;;;24.20;80.40;;;;;;5030864;28;20446;-79
2023/06/29 01:39:21;;;;;;;28.97;22.20;;;24.20;80.30;;;;;;5024066;28;21445;-77
2023/06/29 01:41:49;;;;;;;28.70;20.27;;;24.20;80.30;;;;;;5019816;28;22494;-77
2023/06/29 01:44:19;;;;;;;28.40;21.77;;;24.20;80.40;;;;;;5021303;28;20546;-78
2023/06/29 01:46:47;;;;;;;29.60;24.40;;;24.20;80.50;;;;;;5026479;28;20464;-79
2023/06/29 01:49:15;;;;;;;26.90;20.63;;;24.10;80.20;;;;;;5022274;28;20497;-78
2023/06/29 01:51:41;;;;;;;30.00;22.73;;;24.20;80.40;;;;;;5018121;28;21228;-78
2023/06/29 01:54:08;;;;;;;30.27;21.90;;;24.20;80.40;;;;;;5022323;28;20461;-78
2023/06/29 01:56:35;;;;;;;34.73;23.13;;;24.20;80.50;;;;;;5023819;28;20486;-78
2023/06/29 01:59:03;;;;;;;30.90;21.97;;;24.20;80.40;;;;;;5025554;28;20876;-78
2023/06/29 02:01:31;;;;;;;34.47;24.00;;;24.10;80.30;;;;;;5024293;28;20592;-78
2023/06/29 02:03:58;;;;;;;30.70;21.53;;;24.20;80.40;;;;;;5027126;28;20486;-77
2023/06/29 02:06:25;;;;;;;26.97;21.00;;;24.20;80.60;;;;;;5025532;28;20466;-78
2023/06/29 02:08:52;;;;;;;29.83;20.90;;;24.20;80.40;;;;;;5022137;28;20466;-80
2023/06/29 02:11:19;;;;;;;27.10;20.23;;;24.20;80.40;;;;;;5022992;28;20548;-80
2023/06/29 02:13:47;;;;;;;26.83;21.20;;;24.20;80.40;;;;;;5023140;28;21390;-80
2023/06/29 02:16:13;;;;;;;27.93;20.57;;;24.20;80.40;;;;;;5022369;28;20466;-79
2023/06/29 02:18:41;;;;;;;28.40;22.97;;;24.10;80.30;;;;;;5028960;28;21036;-80
2023/06/29 02:21:08;;;;;;;31.07;21.10;;;24.20;80.50;;;;;;5022367;28;20460;-80
2023/06/29 02:23:35;;;;;;;38.93;23.50;;;24.20;80.40;;;;;;5029299;28;20482;-79
2023/06/29 02:26:02;;;;;;;24.73;20.17;;;24.10;80.30;;;;;;5026698;28;20461;-80
2023/06/29 02:28:29;;;;;;;27.90;20.43;;;24.20;80.50;;;;;;5021963;28;20461;-79
2023/06/29 02:30:55;;;;;;;27.80;20.00;;;24.10;80.40;;;;;;5027823;28;20457;-80
2023/06/29 02:33:22;;;;;;;28.33;20.80;;;24.10;80.30;;;;;;5022788;28;20453;-80
2023/06/29 02:35:50;;;;;;;25.07;19.87;;;24.10;80.40;;;;;;5019859;28;20447;-80
2023/06/29 02:38:17;;;;;;;27.80;22.13;;;24.10;80.30;;;;;;5023187;28;20467;-80
2023/06/29 02:40:44;;;;;;;29.67;20.50;;;24.10;80.40;;;;;;5035496;28;20480;-76
2023/06/29 02:43:11;;;;;;;31.33;21.57;;;24.10;80.40;;;;;;5031819;28;20482;-77
2023/06/29 02:45:38;;;;;;;24.43;20.50;;;24.10;80.40;;;;;;5024930;28;20458;-76
2023/06/29 02:48:05;;;;;;;26.87;20.70;;;24.10;80.40;;;;;;5029988;28;20503;-77
2023/06/29 02:50:32;;;;;;;21.97;18.70;;;24.10;80.40;;;;;;5021358;28;20469;-77
2023/06/29 02:53:00;;;;;;;24.53;18.80;;;24.10;80.40;;;;;;5020528;28;20458;-77
2023/06/29 02:55:27;;;;;;;25.73;20.13;;;24.10;80.40;;;;;;5021870;28;20498;-77
2023/06/29 02:57:53;;;;;;;23.17;18.57;;;24.10;80.40;;;;;;5020758;28;20493;-77
2023/06/29 03:00:20;;;;;;;24.03;18.97;;;24.10;80.40;;;;;;5024341;28;20519;-76
2023/06/29 03:02:47;;;;;;;25.60;20.63;;;24.10;80.40;;;;;;5026194;28;20501;-76
2023/06/29 03:05:14;;;;;;;25.93;19.87;;;24.10;80.40;;;;;;5025771;28;20463;-76
2023/06/29 03:07:41;;;;;;;27.37;18.87;;;24.20;80.60;;;;;;5024832;28;20467;-76
2023/06/29 03:10:09;;;;;;;28.50;19.87;;;24.10;80.50;;;;;;5024156;28;20462;-77
2023/06/29 03:12:36;;;;;;;24.80;19.43;;;24.10;80.40;;;;;;5022866;28;20461;-77
2023/06/29 03:15:03;;;;;;;24.90;19.20;;;24.10;81.30;;;;;;5025881;28;20454;-77
2023/06/29 03:17:30;;;;;;;23.83;19.43;;;24.10;80.50;;;;;;5026703;28;20531;-77
2023/06/29 03:19:57;;;;;;;24.40;19.10;;;24.10;80.50;;;;;;5028167;28;20477;-76
2023/06/29 03:22:25;;;;;;;25.80;19.33;;;24.10;80.50;;;;;;5028446;28;20874;-77
2023/06/29 03:24:51;;;;;;;28.33;19.30;;;24.10;80.60;;;;;;5029566;28;20481;-77
2023/06/29 03:27:20;;;;;;;25.20;19.60;;;24.10;80.60;;;;;;5024023;28;20470;-76
2023/06/29 03:29:50;;;;;;;27.37;19.77;;;24.10;80.50;;;;;;5025021;28;20463;-76
2023/06/29 03:32:17;;;;;;;22.50;17.70;;;24.10;80.50;;;;;;5023868;28;20742;-76
2023/06/29 03:34:43;;;;;;;25.67;18.57;;;24.10;80.50;;;;;;5023947;28;21020;-76
2023/06/29 03:37:11;;;;;;;23.67;19.50;;;24.10;80.60;;;;;;5022887;28;20953;-76
2023/06/29 03:39:37;;;;;;;26.50;19.60;;;24.10;80.50;;;;;;5021586;28;20501;-76
2023/06/29 03:42:05;;;;;;;20.43;17.27;;;24.10;80.50;;;;;;5022613;28;20461;-76
2023/06/29 03:44:34;;;;;;;24.43;18.00;;;24.10;80.60;;;;;;5019992;28;20605;-77
2023/06/29 03:47:00;;;;;;;25.27;19.23;;;24.00;80.40;;;;;;5019212;28;20544;-77
2023/06/29 03:49:27;;;;;;;22.77;16.73;;;24.10;80.60;;;;;;5022463;28;21925;-77
2023/06/29 03:51:54;;;;;;;25.07;19.10;;;24.00;80.60;;;;;;5020417;28;20969;-77
2023/06/29 03:54:21;;;;;;;22.57;18.87;;;24.10;80.60;;;;;;5017116;28;20477;-78
2023/06/29 03:56:47;;;;;;;26.80;18.53;;;24.00;80.60;;;;;;5013724;28;20486;-78
2023/06/29 03:59:14;;;;;;;24.00;17.37;;;24.00;80.60;;;;;;5016789;28;21229;-77
2023/06/29 04:01:42;;;;;;;25.63;18.00;;;24.10;80.70;;;;;;5017782;28;20466;-78
2023/06/29 04:04:09;;;;;;;20.83;17.50;;;24.10;80.70;;;;;;5017353;28;20489;-77
2023/06/29 04:06:36;;;;;;;21.80;17.93;;;24.00;80.60;;;;;;5016413;28;20468;-77
2023/06/29 04:09:03;;;;;;;20.67;16.43;;;24.10;80.70;;;;;;5021474;28;20480;-77
2023/06/29 04:11:30;;;;;;;23.30;18.60;;;24.10;80.70;;;;;;5020759;28;20482;-77
2023/06/29 04:13:56;;;;;;;20.27;16.37;;;24.10;80.70;;;;;;5017149;28;21495;-77
2023/06/29 04:16:23;;;;;;;21.60;16.93;;;24.00;80.70;;;;;;5017076;28;20481;-77
2023/06/29 04:18:51;;;;;;;20.83;17.27;;;24.10;80.70;;;;;;5018268;28;20446;-77
2023/06/29 04:21:18;;;;;;;23.67;18.23;;;24.00;80.70;;;;;;5019536;28;20470;-77
2023/06/29 04:23:45;;;;;;;19.47;17.10;;;24.10;80.80;;;;;;5021009;28;20471;-77
2023/06/29 04:26:13;;;;;;;18.73;15.90;;;24.00;80.60;;;;;;5019732;28;20462;-77
2023/06/29 04:28:44;;;;;;;23.40;17.60;;;24.00;80.70;;;;;;5021179;28;20547;-77
2023/06/29 04:31:11;;;;;;;20.30;15.87;;;24.00;80.70;;;;;;5017468;28;20465;-77
2023/06/29 04:33:38;;;;;;;21.60;16.67;;;24.10;80.80;;;;;;5020028;28;20458;-77
2023/06/29 04:36:07;;;;;;;21.17;16.20;;;24.00;80.80;;;;;;5015651;28;20459;-77
2023/06/29 04:38:34;;;;;;;20.30;16.33;;;24.00;80.70;;;;;;5018244;28;20466;-78
2023/06/29 04:41:04;;;;;;;20.13;16.37;;;24.00;80.70;;;;;;5028146;28;20996;-77
2023/06/29 04:43:31;;;;;;;22.50;16.53;;;24.00;80.70;;;;;;5019623;28;20555;-77
2023/06/29 04:45:59;;;;;;;20.53;15.13;;;24.00;80.70;;;;;;5020905;28;21377;-77
2023/06/29 04:48:29;;;;;;;19.83;15.80;;;24.00;80.70;;;;;;5022347;28;20470;-76
2023/06/29 04:51:04;;;;;;;17.47;14.50;;;24.00;80.70;;;;;;5019887;28;20467;-76
2023/06/29 04:53:33;;;;;;;20.60;15.17;;;24.00;80.70;;;;;;5016030;28;20465;-76
2023/06/29 04:56:01;;;;;;;19.17;15.50;;;24.00;80.80;;;;;;5018785;28;20462;-76
2023/06/29 04:58:27;;;;;;;17.90;14.67;;;24.00;80.80;;;;;;5019493;28;21678;-76
2023/06/29 05:00:55;;;;;;;18.60;15.90;;;24.00;80.80;;;;;;5020996;28;20473;-77
2023/06/29 05:03:22;;;;;;;21.87;16.63;;;24.00;80.80;;;;;;5019283;28;20521;-77
2023/06/29 05:05:49;;;;;;;22.87;18.00;;;24.00;80.80;;;;;;5021028;28;20477;-76
2023/06/29 05:08:15;;;;;;;17.83;15.03;;;24.00;80.80;;;;;;5021139;28;20994;-77
2023/06/29 05:10:44;;;;;;;20.80;14.97;;;24.00;80.70;;;;;;5023121;28;20451;-78
2023/06/29 05:13:11;;;;;;;20.87;16.70;;;24.00;80.70;;;;;;5023031;28;20464;-76
2023/06/29 05:15:38;;;;;;;18.40;15.27;;;24.00;80.80;;;;;;5024016;28;20457;-78
2023/06/29 05:18:05;;;;;;;18.77;15.30;;;24.00;80.80;;;;;;5027468;28;21058;-76
2023/06/29 05:20:31;;;;;;;16.63;14.70;;;24.00;80.80;;;;;;5026361;28;20560;-77
2023/06/29 05:22:59;;;;;;;16.53;14.10;;;24.00;80.80;;;;;;5028152;28;20462;-77
2023/06/29 05:25:25;;;;;;;22.10;14.97;;;24.00;80.90;;;;;;5025913;28;21147;-77
2023/06/29 05:27:53;;;;;;;19.20;15.57;;;24.00;80.80;;;;;;5020644;28;20911;-77
2023/06/29 05:30:20;;;;;;;20.53;15.83;;;24.00;80.80;;;;;;5022191;28;20969;-77
2023/06/29 05:32:47;;;;;;;18.53;15.63;;;24.00;80.80;;;;;;5025230;28;20840;-77
2023/06/29 05:35:14;;;;;;;20.63;15.77;;;24.00;80.80;;;;;;5022440;28;20461;-77
2023/06/29 05:37:40;;;;;;;17.70;14.50;;;24.00;80.80;;;;;;5021535;28;20465;-77
2023/06/29 05:40:09;;;;;;;21.60;15.47;;;24.00;80.80;;;;;;5022421;28;20564;-76
2023/06/29 05:42:36;;;;;;;16.47;14.33;;;24.00;80.90;;;;;;5032439;28;20538;-77
2023/06/29 05:45:06;;;;;;;17.87;15.37;;;24.00;80.90;;;;;;5029007;28;20485;-76
2023/06/29 05:47:32;;;;;;;15.77;13.97;;;24.00;80.90;;;;;;5028893;28;20458;-77
2023/06/29 05:49:59;;;;;;;18.03;15.07;;;24.00;80.90;;;;;;5021475;28;20458;-77
2023/06/29 05:52:26;;;;;;;15.47;13.83;;;24.00;80.90;;;;;;5024722;28;20564;-77
2023/06/29 05:54:53;;;;;;;17.13;15.10;;;24.00;80.90;;;;;;5021754;28;20459;-77
2023/06/29 05:57:20;;;;;;;14.80;12.73;;;24.00;80.90;;;;;;5025299;28;20487;-76
2023/06/29 05:59:46;;;;;;;17.17;12.77;;;24.00;80.90;;;;;;5020612;28;20450;-76
2023/06/29 06:02:15;;;;;;;22.83;15.10;;;24.00;81.00;;;;;;5020538;28;20465;-76
2023/06/29 06:04:42;;;;;;;18.37;13.70;;;24.00;80.90;;;;;;5022419;28;21060;-76
2023/06/29 06:07:09;;;;;;;15.17;13.27;;;24.00;80.90;;;;;;5025181;28;20498;-76
2023/06/29 06:09:35;;;;;;;16.80;13.87;;;24.00;80.90;;;;;;5021061;28;20466;-77
2023/06/29 06:12:05;;;;;;;20.60;14.87;;;24.00;81.00;;;;;;5020879;28;20460;-76
2023/06/29 06:14:31;;;;;;;16.33;13.37;;;24.00;81.00;;;;;;5021285;28;20450;-77
2023/06/29 06:16:58;;;;;;;16.20;13.40;;;24.00;81.00;;;;;;5021666;28;20466;-77
2023/06/29 06:19:27;;;;;;;16.40;14.60;;;24.00;81.00;;;;;;5027048;28;20466;-77
2023/06/29 06:21:54;;;;;;;16.03;13.50;;;24.00;81.00;;;;;;5028051;28;20983;-76
2023/06/29 06:24:21;;;;;;;20.00;15.63;;;24.00;81.80;;;;;;5026320;28;20958;-76
2023/06/29 06:26:48;;;;;;;16.00;13.20;;;24.00;81.00;;;;;;5026047;28;20541;-76
2023/06/29 06:29:15;;;;;;;14.90;13.30;;;24.00;81.00;;;;;;5024235;28;20459;-75
2023/06/29 06:31:41;;;;;;;18.27;13.47;;;24.00;81.00;;;;;;5020546;28;20785;-76
2023/06/29 06:34:08;;;;;;;14.80;12.70;;;24.00;81.00;;;;;;5020893;28;20540;-77
2023/06/29 06:36:36;;;;;;;15.97;12.67;;;24.00;81.00;;;;;;5023306;28;21394;-76
2023/06/29 06:39:03;;;;;;;15.93;13.20;;;24.00;81.00;;;;;;5027287;28;20958;-76
2023/06/29 06:41:30;;;;;;;17.83;13.60;;;24.00;81.00;;;;;;5027229;28;21382;-77
2023/06/29 06:43:57;;;;;;;16.97;13.63;;;24.00;81.10;;;;;;5021962;28;20459;-77
2023/06/29 06:46:24;;;;;;;20.23;13.23;;;24.00;81.10;;;;;;5019349;28;20469;-76
2023/06/29 06:48:51;;;;;;;15.70;12.33;;;24.00;81.20;;;;;;5024394;28;20556;-77
2023/06/29 06:51:18;;;;;;;14.17;12.70;;;24.00;81.20;;;;;;5021509;28;20466;-75
2023/06/29 06:53:46;;;;;;;17.77;12.67;;;24.00;81.10;;;;;;5022589;28;20500;-76
2023/06/29 06:56:13;;;;;;;15.30;13.13;;;24.00;81.10;;;;;;5027107;28;20472;-77
2023/06/29 06:58:40;;;;;;;16.00;13.23;;;24.00;81.10;;;;;;5022857;28;20463;-77
2023/06/29 07:01:07;;;;;;;15.43;13.03;;;24.00;81.10;;;;;;5025609;28;20505;-77
2023/06/29 07:03:33;;;;;;;15.57;12.83;;;24.00;81.10;;;;;;5026273;28;20465;-76
2023/06/29 07:06:00;;;;;;;16.47;13.27;;;24.00;81.10;;;;;;5022081;28;21108;-77
2023/06/29 07:08:28;;;;;;;16.37;12.23;;;24.00;81.00;;;;;;5025534;28;20516;-76
2023/06/29 07:10:56;;;;;;;13.43;12.07;;;24.00;81.20;;;;;;5026501;28;22960;-76
2023/06/29 07:13:24;;;;;;;13.33;11.93;;;24.00;81.20;;;;;;5024872;28;20469;-77
2023/06/29 07:15:51;;;;;;;16.30;12.57;;;24.00;81.20;;;;;;5024874;28;20457;-76
2023/06/29 07:18:17;;;;;;;14.80;12.13;;;24.00;81.20;;;;;;5024705;28;20470;-76
2023/06/29 07:20:44;;;;;;;14.60;11.60;;;24.00;81.20;;;;;;5027336;28;20469;-76
2023/06/29 07:23:11;;;;;;;15.00;12.00;;;24.00;81.30;;;;;;5025157;28;20570;-77
2023/06/29 07:25:38;;;;;;;12.57;11.27;;;24.00;81.20;;;;;;5026080;28;20478;-77
2023/06/29 07:28:06;;;;;;;15.83;12.47;;;24.00;81.20;;;;;;5026597;28;21206;-76
2023/06/29 07:30:33;;;;;;;17.30;12.97;;;24.00;82.00;;;;;;5024231;28;20490;-76
2023/06/29 07:33:00;;;;;;;14.40;11.93;;;24.00;81.30;;;;;;5029514;28;20549;-77
2023/06/29 07:35:27;;;;;;;13.43;12.03;;;23.90;81.20;;;;;;5024790;28;20473;-77
2023/06/29 07:37:53;;;;;;;14.87;12.30;;;24.00;81.20;;;;;;5021552;28;20467;-76
2023/06/29 07:40:20;;;;;;;15.53;13.73;;;24.00;81.30;;;;;;5024513;28;20466;-77
2023/06/29 07:42:47;;;;;;;13.70;12.17;;;24.00;81.60;;;;;;5027290;28;20992;-76
2023/06/29 07:45:16;;;;;;;14.33;12.20;;;24.00;81.50;;;;;;5022292;28;21720;-78
2023/06/29 07:47:43;;;;;;;13.37;11.30;;;24.00;81.40;;;;;;5030074;28;20476;-78
2023/06/29 07:50:10;;;;;;;12.27;10.57;;;24.00;81.60;;;;;;5028178;28;20470;-79
2023/06/29 07:52:37;;;;;;;13.90;11.73;;;24.00;81.70;;;;;;5032142;28;20538;-77
2023/06/29 07:55:05;;;;;;;10.97;9.50;;;24.00;81.80;;;;;;5029430;28;21099;-77
2023/06/29 07:57:31;;;;;;;10.93;9.80;;;24.00;82.10;;;;;;5029254;28;20481;-78
2023/06/29 07:59:58;;;;;;;12.30;10.00;;;24.00;82.40;;;;;;5028888;28;20857;-78
2023/06/29 08:02:26;;;;;;;11.60;10.03;;;24.00;82.50;;;;;;5021995;28;20463;-78
2023/06/29 08:04:53;;;;;;;12.23;10.07;;;24.00;82.60;;;;;;5025066;28;20483;-78
2023/06/29 08:07:20;;;;;;;11.10;9.80;;;24.00;83.10;;;;;;5022990;28;23196;-79
2023/06/29 08:09:50;;;;;;;11.37;9.33;;;24.00;83.00;;;;;;5024930;28;20490;-86
2023/06/29 08:12:17;;;;;;;9.53;8.23;;;24.00;83.50;;;;;;5025087;28;20465;-86
2023/06/29 08:14:43;;;;;;;9.03;7.73;;;24.00;83.70;;;;;;5021363;28;20475;-86
2023/06/29 08:17:10;;;;;;;10.53;8.73;;;24.00;84.00;;;;;;5024531;28;20532;-86
2023/06/29 08:19:38;;;;;;;9.03;7.60;;;24.10;84.30;;;;;;5026984;28;20516;-85
2023/06/29 08:22:05;;;;;;;10.23;8.10;;;24.00;84.30;;;;;;5022163;28;20454;-84
2023/06/29 08:24:32;;;;;;;8.90;7.63;;;24.10;84.70;;;;;;5021234;28;20488;-85
2023/06/29 08:27:00;;;;;;;11.00;7.50;;;24.10;85.00;;;;;;5031276;28;20458;-85
2023/06/29 08:29:27;;;;;;;10.97;7.50;;;24.10;85.10;;;;;;5028361;28;20473;-85
2023/06/29 08:31:54;;;;;;;13.97;7.77;;;24.10;85.40;;;;;;5027416;28;20876;-83
2023/06/29 08:34:21;;;;;;;12.57;8.07;;;24.10;85.60;;;;;;5028522;28;20469;-83
2023/06/29 08:36:49;;;;;;;11.00;7.50;;;24.00;85.50;;;;;;5023881;28;20554;-83
2023/06/29 08:39:16;;;;;;;8.83;7.23;;;24.00;85.60;;;;;;5027527;28;20491;-84
2023/06/29 08:41:43;;;;;;;8.73;7.83;;;24.10;85.80;;;;;;5026476;28;20457;-84
2023/06/29 08:44:10;;;;;;;9.17;7.07;;;24.00;85.80;;;;;;5022826;28;20469;-83
2023/06/29 08:46:39;;;;;;;10.00;6.73;;;24.10;86.00;;;;;;5024706;28;21076;-84
2023/06/29 08:49:08;;;;;;;11.00;7.03;;;24.10;86.10;;;;;;5028736;28;20455;-84
2023/06/29 08:51:39;;;;;;;11.97;7.17;;;24.10;86.10;;;;;;5024156;28;21338;-84
2023/06/29 08:54:09;;;;;;;8.43;5.93;;;24.10;86.10;;;;;;5029132;28;20458;-84
2023/06/29 08:56:36;;;;;;;10.83;6.50;;;24.10;86.30;;;;;;5026752;28;20559;-82
2023/06/29 08:59:03;;;;;;;9.30;5.80;;;24.10;86.40;;;;;;5025488;28;20834;-83
2023/06/29 09:01:31;;;;;;;8.23;6.10;;;24.10;86.50;;;;;;5024998;28;20453;-82
2023/06/29 09:04:00;;;;;;;8.30;6.67;;;24.10;86.50;;;;;;5025835;28;20508;-82
2023/06/29 09:06:27;;;;;;;8.73;6.63;;;24.10;86.40;;;;;;5025411;28;21094;-81
2023/06/29 09:08:54;;;;;;;7.90;6.37;;;24.10;86.50;;;;;;5029289;28;20959;-82
2023/06/29 09:11:23;;;;;;;9.40;6.50;;;24.10;86.40;;;;;;5027866;28;20460;-82
2023/06/29 09:13:50;;;;;;;7.87;6.23;;;24.10;86.50;;;;;;5030313;28;20463;-84
2023/06/29 09:16:18;;;;;;;7.80;6.20;;;24.10;86.60;;;;;;5028950;28;20456;-83
2023/06/29 09:18:54;;;;;;;5.90;5.30;;;24.10;86.50;;;;;;5028742;28;21756;-83
2023/06/29 09:21:23;;;;;;;7.40;6.63;;;24.10;87.40;;;;;;5028623;28;20470;-83
2023/06/29 09:23:50;;;;;;;6.53;5.33;;;24.10;86.50;;;;;;5028114;28;20453;-86
2023/06/29 09:26:18;;;;;;;8.43;5.50;;;24.10;86.50;;;;;;5028905;28;20477;-89
2023/06/29 09:28:47;;;;;;;7.67;6.60;;;24.10;86.70;;;;;;5033228;28;20459;-88
2023/06/29 09:31:14;;;;;;;7.07;5.97;;;24.10;86.70;;;;;;5031458;28;20507;-88
2023/06/29 09:33:44;;;;;;;5.73;5.10;;;24.10;86.80;;;;;;5033184;28;21033;-91
2023/06/29 09:36:12;;;;;;;9.03;7.40;;;24.10;87.10;;;;;;5032542;28;21037;-92
2023/06/29 09:38:39;;;;;;;7.63;5.80;;;24.10;87.40;;;;;;5037126;28;20532;-92
2023/06/29 09:41:07;;;;;;;8.43;6.37;;;24.10;87.20;;;;;;5032510;28;20466;-89
2023/06/29 09:43:35;;;;;;;8.93;5.90;;;24.10;87.40;;;;;;5038396;28;20573;-90
2023/06/29 09:46:09;;;;;;;6.63;5.93;;;24.10;87.50;;;;;;5036157;28;20481;-90
2023/06/29 09:48:45;;;;;;;8.43;5.80;;;24.10;87.70;;;;;;5036104;28;20457;-90
2023/06/29 09:51:19;;;;;;;10.30;5.47;;;24.20;87.90;;;;;;5035527;28;20536;-90
2023/06/29 09:53:46;;;;;;;6.57;5.53;;;24.10;87.90;;;;;;5037223;28;20498;-90
2023/06/29 09:56:14;;;;;;;5.20;4.70;;;24.10;87.80;;;;;;5036455;28;20504;-90
2023/06/29 09:58:41;;;;;;;7.90;5.93;;;24.40;89.00;;;;;;5035282;28;20458;-86
2023/06/29 10:01:10;;;;;;;5.93;5.27;;;24.10;88.20;;;;;;5032049;28;20465;-85
2023/06/29 10:03:37;;;;;;;6.47;4.93;;;24.10;87.80;;;;;;5033613;28;21043;-87
2023/06/29 10:06:09;;;;;;;6.73;5.53;;;24.10;88.00;;;;;;5029459;28;20485;-88
2023/06/29 10:08:37;;;;;;;8.13;5.97;;;24.10;88.20;;;;;;5030549;28;20462;-87
2023/06/29 10:11:05;;;;;;;6.97;5.27;;;24.20;88.30;;;;;;5031478;28;20462;-85
2023/06/29 10:13:36;;;;;;;5.47;4.70;;;24.10;88.10;;;;;;5028598;28;20458;-86
2023/06/29 10:16:08;;;;;;;6.13;5.40;;;24.10;88.20;;;;;;5029479;28;20994;-88
2023/06/29 10:18:40;;;;;;;7.33;5.23;;;24.20;88.60;;;;;;5029719;28;20451;-86
2023/06/29 10:21:07;;;;;;;5.83;4.50;;;24.10;88.40;;;;;;5027121;28;20497;-85
2023/06/29 10:23:39;;;;;;;5.27;4.70;;;24.20;88.70;;;;;;5030043;28;20447;-88
2023/06/29 10:26:07;;;;;;;5.77;4.63;;;24.10;88.50;;;;;;5035510;28;20474;-87
2023/06/29 10:28:35;;;;;;;6.23;5.03;;;24.20;88.90;;;;;;5024910;28;20462;-83
2023/06/29 10:31:02;;;;;;;8.20;4.67;;;24.20;88.90;;;;;;5019757;28;20458;-82
2023/06/29 10:33:29;;;;;;;6.93;6.20;;;24.10;88.80;;;;;;5024499;28;21832;-79
2023/06/29 10:35:58;;;;;;;5.27;4.67;;;24.10;89.00;;;;;;5027153;28;20864;-80
2023/06/29 10:38:31;;;;;;;5.23;4.23;;;24.10;89.00;;;;;;5026088;28;20461;-79
2023/06/29 10:40:58;;;;;;;5.53;4.43;;;24.10;89.20;;;;;;5028117;28;20443;-79
2023/06/29 10:43:26;;;;;;;5.03;4.20;;;24.20;89.20;;;;;;5027765;28;20537;-79
2023/06/29 10:45:53;;;;;;;4.10;3.70;;;24.20;89.50;;;;;;5023580;28;20470;-79
2023/06/29 10:48:21;;;;;;;5.53;4.30;;;24.20;89.40;;;;;;5027152;28;20457;-78
2023/06/29 10:50:50;;;;;;;4.67;3.93;;;24.20;89.50;;;;;;5027924;28;20472;-79
2023/06/29 10:53:19;;;;;;;5.70;5.17;;;24.20;89.50;;;;;;5025899;28;20981;-79
2023/06/29 10:55:51;;;;;;;4.80;4.27;;;24.20;89.40;;;;;;5025603;28;20462;-80
2023/06/29 10:58:23;;;;;;;9.57;4.80;;;24.20;89.60;;;;;;5032938;28;20486;-80
2023/06/29 11:00:52;;;;;;;5.53;4.17;;;24.20;89.50;;;;;;5029504;28;20864;-79
2023/06/29 11:03:20;;;;;;;4.33;3.93;;;24.20;89.60;;;;;;5026995;28;20820;-80
2023/06/29 11:05:49;;;;;;;4.70;4.30;;;24.20;90.20;;;;;;5028979;28;20479;-79
2023/06/29 11:08:16;;;;;;;7.37;4.30;;;24.20;89.80;;;;;;5030080;28;20466;-78
2023/06/29 11:10:45;;;;;;;5.33;4.10;;;24.20;89.80;;;;;;5032901;28;20452;-79
2023/06/29 11:13:13;;;;;;;5.37;3.83;;;24.20;89.80;;;;;;5028873;28;20582;-79
2023/06/29 11:15:40;;;;;;;7.63;4.90;;;24.20;89.80;;;;;;5028815;28;20462;-79
2023/06/29 11:18:08;;;;;;;5.27;4.00;;;24.20;89.70;;;;;;5029048;28;20477;-79
2023/06/29 11:20:39;;;;;;;6.13;3.97;;;24.20;89.80;;;;;;5027127;28;20482;-80
2023/06/29 11:23:08;;;;;;;4.77;3.90;;;24.10;89.80;;;;;;5029912;28;20477;-79
2023/06/29 11:25:36;;;;;;;3.70;3.40;;;24.20;89.80;;;;;;5026293;28;20510;-79
2023/06/29 11:28:04;;;;;;;5.27;4.17;;;24.20;89.80;;;;;;5029641;28;20488;-79
2023/06/29 11:30:32;;;;;;;6.17;3.83;;;24.20;89.80;;;;;;5024666;28;20467;-78
2023/06/29 11:33:00;;;;;;;5.30;4.77;;;24.20;89.90;;;;;;5027106;28;24250;-80
2023/06/29 11:35:27;;;;;;;6.33;4.33;;;24.20;89.90;;;;;;5025344;28;20473;-79
2023/06/29 11:38:00;;;;;;;4.63;4.20;;;24.20;89.90;;;;;;5017369;28;20609;-78
2023/06/29 11:40:27;;;;;;;4.90;4.23;;;24.20;90.00;;;;;;5027785;28;21079;-78
2023/06/29 11:42:54;;;;;;;7.13;3.77;;;24.20;90.00;;;;;;5025082;28;21057;-78
2023/06/29 11:45:23;;;;;;;5.23;3.70;;;24.20;90.00;;;;;;5021746;28;20532;-77
2023/06/29 11:47:56;;;;;;;4.87;3.60;;;24.20;90.00;;;;;;5024887;28;22231;-78
2023/06/29 11:50:24;;;;;;;5.90;4.93;;;24.20;90.10;;;;;;5026083;28;20586;-78
2023/06/29 11:52:51;;;;;;;5.40;4.43;;;24.20;90.00;;;;;;5025554;28;20476;-78
2023/06/29 11:55:18;;;;;;;5.93;4.33;;;24.20;90.10;;;;;;5025015;28;20454;-77
2023/06/29 11:57:51;;;;;;;4.90;4.40;;;24.20;90.10;;;;;;5021606;28;20482;-78
2023/06/29 12:00:33;;;;;;;5.27;4.77;;;24.20;90.20;;;;;;5021526;28;20462;-78
2023/06/29 12:03:08;;;;;;;13.20;5.17;;;24.20;90.20;;;;;;5023004;28;20489;-78
2023/06/29 12:05:40;;;;;;;7.40;4.10;;;24.20;90.20;;;;;;5020302;28;20458;-78
2023/06/29 12:08:08;;;;;;;5.47;4.90;;;24.20;90.20;;;;;;5023657;28;20561;-77
2023/06/29 12:10:36;;;;;;;6.73;5.57;;;24.20;90.30;;;;;;5023301;28;20462;-78
2023/06/29 12:13:04;;;;;;;7.20;5.10;;;24.20;90.30;;;;;;5023907;28;20485;-78
2023/06/29 12:15:33;;;;;;;6.20;4.80;;;24.20;90.40;;;;;;5021467;28;20978;-77
2023/06/29 12:18:08;;;;;;;6.37;4.90;;;24.20;90.50;;;;;;5023920;28;20470;-78
2023/06/29 12:20:39;;;;;;;6.17;5.00;;;24.20;90.60;;;;;;5023650;28;20453;-78
2023/06/29 12:23:06;;;;;;;6.17;5.57;;;24.20;90.70;;;;;;5023972;28;20458;-78
2023/06/29 12:25:41;;;;;;;6.80;6.10;;;24.20;90.80;;;;;;5018969;28;20462;-77
2023/06/29 12:28:08;;;;;;;6.83;5.80;;;24.20;90.70;;;;;;5023561;28;20560;-79
2023/06/29 12:30:36;;;;;;;6.90;6.20;;;24.20;90.70;;;;;;5020608;28;20458;-79
2023/06/29 12:33:03;;;;;;;8.27;6.00;;;24.20;90.60;;;;;;5020748;28;20455;-79
2023/06/29 12:35:32;;;;;;;12.53;4.77;;;24.20;90.70;;;;;;5022291;28;20473;-79